createdAt,value
2017-03-26T00:00:13.953Z,930.74
2017-03-26T00:00:42.177Z,930.74
2017-03-26T00:01:10.491Z,930.75
2017-03-26T00:01:38.948Z,930.76
2017-03-26T00:02:07.454Z,930.74
2017-03-26T00:02:35.919Z,930.73
2017-03-26T00:03:04.190Z,930.71
2017-03-26T00:03:32.405Z,930.71
2017-03-26T00:04:00.711Z,930.71
2017-03-26T00:04:29.130Z,930.68
2017-03-26T00:04:57.515Z,930.66
2017-03-26T00:05:25.619Z,930.66
2017-03-26T00:05:53.695Z,930.64
2017-03-26T00:06:22.228Z,930.64
2017-03-26T00:06:50.592Z,930.62
2017-03-26T00:07:19.059Z,930.61
2017-03-26T00:07:47.443Z,930.62
2017-03-26T00:08:15.869Z,930.62
2017-03-26T00:08:44.322Z,930.65
2017-03-26T00:09:12.532Z,930.64
2017-03-26T00:09:40.959Z,930.66
2017-03-26T00:10:09.305Z,930.64
2017-03-26T00:10:37.254Z,930.66
2017-03-26T00:11:05.509Z,930.64
2017-03-26T00:11:33.989Z,930.67
2017-03-26T00:12:02.262Z,930.67
2017-03-26T00:12:30.765Z,930.66
2017-03-26T00:12:59.098Z,930.66
2017-03-26T00:13:27.394Z,930.66
2017-03-26T00:13:56.048Z,930.65
2017-03-26T00:14:24.384Z,930.67
2017-03-26T00:14:52.654Z,930.65
2017-03-26T00:15:20.823Z,930.66
2017-03-26T00:15:48.965Z,930.68
2017-03-26T00:16:17.204Z,930.68
2017-03-26T00:16:45.366Z,930.71
2017-03-26T00:17:14.101Z,930.72
2017-03-26T00:17:42.396Z,930.7
2017-03-26T00:18:10.798Z,930.71
2017-03-26T00:18:39.113Z,930.72
2017-03-26T00:19:07.641Z,930.72
2017-03-26T00:19:35.838Z,930.74
2017-03-26T00:20:04.149Z,930.72
2017-03-26T00:20:32.569Z,930.72
2017-03-26T00:21:01.147Z,930.73
2017-03-26T00:21:29.512Z,930.76
2017-03-26T00:21:57.616Z,930.74
2017-03-26T00:22:25.832Z,930.77
2017-03-26T00:22:54.159Z,930.75
2017-03-26T00:23:22.480Z,930.76
2017-03-26T00:23:50.622Z,930.76
2017-03-26T00:24:19.043Z,930.71
2017-03-26T00:24:47.468Z,930.74
2017-03-26T00:25:15.699Z,930.76
2017-03-26T00:25:43.936Z,930.75
2017-03-26T00:26:12.128Z,930.77
2017-03-26T00:26:40.564Z,930.75
2017-03-26T00:27:08.833Z,930.75
2017-03-26T00:27:37.091Z,930.73
2017-03-26T00:28:05.416Z,930.74
2017-03-26T00:28:33.828Z,930.75
2017-03-26T00:29:02.211Z,930.76
2017-03-26T00:29:30.582Z,930.74
2017-03-26T00:29:59.088Z,930.76
2017-03-26T00:30:27.283Z,930.76
2017-03-26T00:30:55.604Z,930.73
2017-03-26T00:31:23.998Z,930.76
2017-03-26T00:31:52.146Z,930.74
2017-03-26T00:32:20.416Z,930.68
2017-03-26T00:32:48.817Z,930.67
2017-03-26T00:33:17.163Z,930.69
2017-03-26T00:33:45.464Z,930.72
2017-03-26T00:34:13.768Z,930.71
2017-03-26T00:34:41.845Z,930.7
2017-03-26T00:35:10.271Z,930.73
2017-03-26T00:35:38.625Z,930.71
2017-03-26T00:36:06.965Z,930.73
2017-03-26T00:36:35.324Z,930.74
2017-03-26T00:37:03.517Z,930.75
2017-03-26T00:37:31.925Z,930.75
2017-03-26T00:38:00.287Z,930.77
2017-03-26T00:38:28.644Z,930.81
2017-03-26T00:38:56.918Z,930.81
2017-03-26T00:39:25.306Z,930.8
2017-03-26T00:39:53.814Z,930.83
2017-03-26T00:40:22.248Z,930.87
2017-03-26T00:40:50.625Z,930.85
2017-03-26T00:41:18.902Z,930.85
2017-03-26T00:41:47.302Z,930.89
2017-03-26T00:42:15.728Z,930.87
2017-03-26T00:42:44.014Z,930.89
2017-03-26T00:43:12.256Z,930.88
2017-03-26T00:43:40.647Z,930.9
2017-03-26T00:44:08.956Z,930.89
2017-03-26T00:44:37.412Z,930.88
2017-03-26T00:45:05.743Z,930.89
2017-03-26T00:45:34.085Z,930.92
2017-03-26T00:46:02.174Z,930.93
2017-03-26T00:46:30.618Z,930.97
2017-03-26T00:46:58.829Z,930.98
2017-03-26T00:47:27.062Z,931
2017-03-26T00:47:55.471Z,930.99
2017-03-26T00:48:23.723Z,931.02
2017-03-26T00:48:52.055Z,931.03
2017-03-26T00:49:20.595Z,931.03
2017-03-26T00:49:48.851Z,931.06
2017-03-26T00:50:17.162Z,931.05
2017-03-26T00:50:45.697Z,931.01
2017-03-26T00:51:14.117Z,931.09
2017-03-26T00:51:42.551Z,931.11
2017-03-26T00:52:10.880Z,931.1
2017-03-26T00:52:39.208Z,931.12
2017-03-26T00:53:07.684Z,931.07
2017-03-26T00:53:35.983Z,931.11
2017-03-26T00:54:04.339Z,931.14
2017-03-26T00:54:32.572Z,931.13
2017-03-26T00:55:00.867Z,931.13
2017-03-26T00:55:29.139Z,931.12
2017-03-26T00:55:57.408Z,931.1
2017-03-26T00:56:25.733Z,931.12
2017-03-26T00:56:54.134Z,931.12
2017-03-26T00:57:22.432Z,931.14
2017-03-26T00:57:50.758Z,931.13
2017-03-26T00:58:18.958Z,931.14
2017-03-26T00:58:47.173Z,931.14
2017-03-26T00:59:15.679Z,931.16
2017-03-26T00:59:44.016Z,931.15
2017-03-26T01:00:12.364Z,931.16
2017-03-26T01:00:40.734Z,931.16
2017-03-26T01:01:08.954Z,931.14
2017-03-26T01:01:37.276Z,931.16
2017-03-26T01:02:05.705Z,931.13
2017-03-26T01:02:34.099Z,931.14
2017-03-26T01:03:02.520Z,931.11
2017-03-26T01:03:30.805Z,931.11
2017-03-26T01:03:59.036Z,931.1
2017-03-26T01:04:27.433Z,931.11
2017-03-26T01:04:55.871Z,931.08
2017-03-26T01:05:24.100Z,931.09
2017-03-26T01:05:52.477Z,931.08
2017-03-26T01:06:21.275Z,931.11
2017-03-26T01:06:49.600Z,931.11
2017-03-26T01:07:17.888Z,931.12
2017-03-26T01:07:46.323Z,931.1
2017-03-26T01:08:14.820Z,931.1
2017-03-26T01:08:43.154Z,931.09
2017-03-26T01:09:11.458Z,931.12
2017-03-26T01:09:39.646Z,931.13
2017-03-26T01:10:07.953Z,931.14
2017-03-26T01:10:36.295Z,931.16
2017-03-26T01:11:04.707Z,931.18
2017-03-26T01:11:33.316Z,931.15
2017-03-26T01:12:01.635Z,931.2
2017-03-26T01:12:29.858Z,931.19
2017-03-26T01:12:57.991Z,931.17
2017-03-26T01:13:26.037Z,931.19
2017-03-26T01:13:54.552Z,931.19
2017-03-26T01:14:23.015Z,931.17
2017-03-26T01:14:51.244Z,931.19
2017-03-26T01:15:19.403Z,931.16
2017-03-26T01:15:47.803Z,931.16
2017-03-26T01:16:16.312Z,931.21
2017-03-26T01:16:44.470Z,931.2
2017-03-26T01:17:12.598Z,931.21
2017-03-26T01:17:41.085Z,931.23
2017-03-26T01:18:09.257Z,931.21
2017-03-26T01:18:37.504Z,931.2
2017-03-26T01:19:06.068Z,931.22
2017-03-26T01:19:34.311Z,931.19
2017-03-26T01:20:02.744Z,931.22
2017-03-26T01:20:31.185Z,931.24
2017-03-26T01:20:59.624Z,931.22
2017-03-26T01:21:28.106Z,931.19
2017-03-26T01:21:56.411Z,931.2
2017-03-26T01:22:24.711Z,931.18
2017-03-26T01:22:52.951Z,931.18
2017-03-26T01:23:21.155Z,931.17
2017-03-26T01:23:49.327Z,931.14
2017-03-26T01:24:17.849Z,931.15
2017-03-26T01:24:46.170Z,931.11
2017-03-26T01:25:14.555Z,931.11
2017-03-26T01:25:42.879Z,931.1
2017-03-26T01:26:11.185Z,931.13
2017-03-26T01:26:39.554Z,931.09
2017-03-26T01:27:07.809Z,931.08
2017-03-26T01:27:36.228Z,931.11
2017-03-26T01:28:04.590Z,931.1
2017-03-26T01:28:32.817Z,931.06
2017-03-26T01:29:01.244Z,931.06
2017-03-26T01:29:29.525Z,931.06
2017-03-26T01:29:57.820Z,931.07
2017-03-26T01:30:26.031Z,931.06
2017-03-26T01:30:54.140Z,931.1
2017-03-26T01:31:22.304Z,931.11
2017-03-26T01:31:50.381Z,931.12
2017-03-26T01:32:18.764Z,931.12
2017-03-26T01:32:46.915Z,931.17
2017-03-26T01:33:15.328Z,931.19
2017-03-26T01:33:43.611Z,931.18
2017-03-26T01:34:12.104Z,931.18
2017-03-26T01:34:40.312Z,931.19
2017-03-26T01:35:08.858Z,931.22
2017-03-26T01:35:37.202Z,931.21
2017-03-26T01:36:05.497Z,931.22
2017-03-26T01:36:33.714Z,931.25
2017-03-26T01:37:01.915Z,931.2
2017-03-26T01:37:30.133Z,931.18
2017-03-26T01:37:58.684Z,931.2
2017-03-26T01:38:26.996Z,931.17
2017-03-26T01:38:55.143Z,931.18
2017-03-26T01:39:23.298Z,931.16
2017-03-26T01:39:51.487Z,931.16
2017-03-26T01:40:19.718Z,931.14
2017-03-26T01:40:48.105Z,931.13
2017-03-26T01:41:16.489Z,931.14
2017-03-26T01:41:45.076Z,931.15
2017-03-26T01:42:13.366Z,931.16
2017-03-26T01:42:41.506Z,931.16
2017-03-26T01:43:09.869Z,931.12
2017-03-26T01:43:38.104Z,931.18
2017-03-26T01:44:06.319Z,931.16
2017-03-26T01:44:34.725Z,931.14
2017-03-26T01:45:03.295Z,931.16
2017-03-26T01:45:31.747Z,931.15
2017-03-26T01:46:00.009Z,931.16
2017-03-26T01:46:28.299Z,931.12
2017-03-26T01:46:56.625Z,931.14
2017-03-26T01:47:24.948Z,931.13
2017-03-26T01:47:53.458Z,931.17
2017-03-26T01:48:21.948Z,931.16
2017-03-26T01:48:50.326Z,931.18
2017-03-26T01:49:18.498Z,931.19
2017-03-26T01:49:46.735Z,931.2
2017-03-26T01:50:15.004Z,931.19
2017-03-26T01:50:43.541Z,931.17
2017-03-26T01:51:12.012Z,931.18
2017-03-26T01:51:40.278Z,931.21
2017-03-26T01:52:08.663Z,931.19
2017-03-26T01:52:37.047Z,931.2
2017-03-26T01:53:05.242Z,931.18
2017-03-26T01:53:33.618Z,931.17
2017-03-26T01:54:02.018Z,931.22
2017-03-26T01:54:30.513Z,931.18
2017-03-26T01:54:58.954Z,931.21
2017-03-26T01:55:27.207Z,931.21
2017-03-26T01:55:55.620Z,931.24
2017-03-26T01:56:23.890Z,931.25
2017-03-26T01:56:53.009Z,931.3
2017-03-26T01:57:21.586Z,931.27
2017-03-26T01:57:50.107Z,931.31
2017-03-26T01:58:18.357Z,931.33
2017-03-26T01:58:46.777Z,931.32
2017-03-26T01:59:15.007Z,931.34
2017-03-26T01:59:43.466Z,931.36
2017-03-26T02:00:11.847Z,931.38
2017-03-26T02:00:40.054Z,931.42
2017-03-26T02:01:08.365Z,931.43
2017-03-26T02:01:36.661Z,931.41
2017-03-26T02:02:04.899Z,931.39
2017-03-26T02:02:33.160Z,931.46
2017-03-26T02:03:01.477Z,931.46
2017-03-26T02:03:29.882Z,931.42
2017-03-26T02:03:58.074Z,931.46
2017-03-26T02:04:26.380Z,931.45
2017-03-26T02:04:54.571Z,931.45
2017-03-26T02:05:22.898Z,931.45
2017-03-26T02:05:51.101Z,931.45
2017-03-26T02:06:19.385Z,931.44
2017-03-26T02:06:47.563Z,931.49
2017-03-26T02:07:15.832Z,931.47
2017-03-26T02:07:43.985Z,931.44
2017-03-26T02:08:12.382Z,931.5
2017-03-26T02:08:40.727Z,931.44
2017-03-26T02:09:08.889Z,931.43
2017-03-26T02:09:37.246Z,931.45
2017-03-26T02:10:05.622Z,931.43
2017-03-26T02:10:33.996Z,931.43
2017-03-26T02:11:02.455Z,931.45
2017-03-26T02:11:30.820Z,931.45
2017-03-26T02:11:59.269Z,931.44
2017-03-26T02:12:27.839Z,931.44
2017-03-26T02:12:56.153Z,931.43
2017-03-26T02:13:24.418Z,931.4
2017-03-26T02:13:52.783Z,931.41
2017-03-26T02:14:21.279Z,931.42
2017-03-26T02:14:49.602Z,931.46
2017-03-26T02:15:17.866Z,931.45
2017-03-26T02:15:46.172Z,931.42
2017-03-26T02:16:14.334Z,931.41
2017-03-26T02:16:42.662Z,931.4
2017-03-26T02:17:11.010Z,931.39
2017-03-26T02:17:39.414Z,931.41
2017-03-26T02:18:07.789Z,931.41
2017-03-26T02:18:36.072Z,931.4
2017-03-26T02:19:04.341Z,931.41
2017-03-26T02:19:32.623Z,931.38
2017-03-26T02:20:00.918Z,931.39
2017-03-26T02:20:29.136Z,931.35
2017-03-26T02:20:57.482Z,931.39
2017-03-26T02:21:25.755Z,931.42
2017-03-26T02:21:54.246Z,931.38
2017-03-26T02:22:22.655Z,931.35
2017-03-26T02:22:50.771Z,931.39
2017-03-26T02:23:19.070Z,931.36
2017-03-26T02:23:47.287Z,931.38
2017-03-26T02:24:15.588Z,931.39
2017-03-26T02:24:43.734Z,931.37
2017-03-26T02:25:11.971Z,931.37
2017-03-26T02:25:40.206Z,931.33
2017-03-26T02:26:08.692Z,931.35
2017-03-26T02:26:37.033Z,931.29
2017-03-26T02:27:05.381Z,931.26
2017-03-26T02:27:33.711Z,931.26
2017-03-26T02:28:02.166Z,931.21
2017-03-26T02:28:30.353Z,931.23
2017-03-26T02:28:59.027Z,931.21
2017-03-26T02:29:27.367Z,931.19
2017-03-26T02:29:55.761Z,931.17
2017-03-26T02:30:24.050Z,931.18
2017-03-26T02:30:52.407Z,931.14
2017-03-26T02:31:20.941Z,931.17
2017-03-26T02:31:49.404Z,931.16
2017-03-26T02:32:17.720Z,931.16
2017-03-26T02:32:46.048Z,931.13
2017-03-26T02:33:14.309Z,931.16
2017-03-26T02:33:42.601Z,931.14
2017-03-26T02:34:11.053Z,931.18
2017-03-26T02:34:39.474Z,931.17
2017-03-26T02:35:08.004Z,931.18
2017-03-26T02:35:36.340Z,931.17
2017-03-26T02:36:04.610Z,931.15
2017-03-26T02:36:32.638Z,931.18
2017-03-26T02:37:00.806Z,931.18
2017-03-26T02:37:29.209Z,931.18
2017-03-26T02:37:57.481Z,931.2
2017-03-26T02:38:25.818Z,931.17
2017-03-26T02:38:54.075Z,931.17
2017-03-26T02:39:22.384Z,931.17
2017-03-26T02:39:50.669Z,931.17
2017-03-26T02:40:19.005Z,931.18
2017-03-26T02:40:47.281Z,931.16
2017-03-26T02:41:15.724Z,931.16
2017-03-26T02:41:44.016Z,931.17
2017-03-26T02:42:12.374Z,931.15
2017-03-26T02:42:40.640Z,931.14
2017-03-26T02:43:08.915Z,931.16
2017-03-26T02:43:37.190Z,931.13
2017-03-26T02:44:05.413Z,931.12
2017-03-26T02:44:33.979Z,931.14
2017-03-26T02:45:02.301Z,931.13
2017-03-26T02:45:30.807Z,931.09
2017-03-26T02:45:58.951Z,931.07
2017-03-26T02:46:27.249Z,931.05
2017-03-26T02:46:55.458Z,931.07
2017-03-26T02:47:23.920Z,931.06
2017-03-26T02:47:53.112Z,931.05
2017-03-26T02:48:21.502Z,931.06
2017-03-26T02:48:49.896Z,931.07
2017-03-26T02:49:18.327Z,931.08
2017-03-26T02:49:46.510Z,931.11
2017-03-26T02:50:14.853Z,931.1
2017-03-26T02:50:43.672Z,931.12
2017-03-26T02:51:11.809Z,931.13
2017-03-26T02:51:40.282Z,931.11
2017-03-26T02:52:08.759Z,931.14
2017-03-26T02:52:37.048Z,931.08
2017-03-26T02:53:05.288Z,931.11
2017-03-26T02:53:34.177Z,931.11
2017-03-26T02:54:02.468Z,931.11
2017-03-26T02:54:30.889Z,931.09
2017-03-26T02:54:59.193Z,931.06
2017-03-26T02:55:27.481Z,931.09
2017-03-26T02:55:56.000Z,931.08
2017-03-26T02:56:24.894Z,931.11
2017-03-26T02:56:53.180Z,931.07
2017-03-26T02:57:21.575Z,931.07
2017-03-26T02:57:49.789Z,931.08
2017-03-26T02:58:18.276Z,931.11
2017-03-26T02:58:46.578Z,931.16
2017-03-26T02:59:14.880Z,931.1
2017-03-26T02:59:43.167Z,931.09
2017-03-26T03:00:11.934Z,931.03
2017-03-26T03:00:40.267Z,931.06
2017-03-26T03:01:08.591Z,931.01
2017-03-26T03:01:36.819Z,931.01
2017-03-26T03:02:05.413Z,931
2017-03-26T03:02:33.902Z,931.03
2017-03-26T03:03:02.200Z,931
2017-03-26T03:03:30.408Z,930.99
2017-03-26T03:03:58.756Z,931
2017-03-26T03:04:26.920Z,931
2017-03-26T03:04:55.206Z,930.98
2017-03-26T03:05:23.411Z,930.98
2017-03-26T03:05:51.761Z,930.99
2017-03-26T03:06:20.190Z,930.96
2017-03-26T03:06:48.202Z,931.01
2017-03-26T03:07:16.569Z,930.97
2017-03-26T03:07:44.842Z,931
2017-03-26T03:08:13.436Z,930.99
2017-03-26T03:08:41.888Z,931.03
2017-03-26T03:09:10.245Z,931.02
2017-03-26T03:09:38.700Z,931.04
2017-03-26T03:10:06.992Z,931.01
2017-03-26T03:10:35.241Z,931
2017-03-26T03:11:03.492Z,931.01
2017-03-26T03:11:31.662Z,930.99
2017-03-26T03:11:59.981Z,930.98
2017-03-26T03:12:28.367Z,931
2017-03-26T03:12:56.651Z,931
2017-03-26T03:13:24.816Z,930.99
2017-03-26T03:13:53.216Z,931.01
2017-03-26T03:14:21.330Z,930.99
2017-03-26T03:14:49.472Z,931.01
2017-03-26T03:15:17.592Z,931.01
2017-03-26T03:15:45.967Z,930.96
2017-03-26T03:16:14.220Z,930.95
2017-03-26T03:16:42.595Z,930.97
2017-03-26T03:17:10.911Z,930.96
2017-03-26T03:17:39.190Z,930.95
2017-03-26T03:18:07.580Z,930.95
2017-03-26T03:18:35.828Z,930.94
2017-03-26T03:19:03.972Z,930.99
2017-03-26T03:19:32.257Z,931
2017-03-26T03:20:00.445Z,930.97
2017-03-26T03:20:28.662Z,930.97
2017-03-26T03:20:57.053Z,930.93
2017-03-26T03:21:25.172Z,930.95
2017-03-26T03:21:53.518Z,930.94
2017-03-26T03:22:21.963Z,930.93
2017-03-26T03:22:50.291Z,930.94
2017-03-26T03:23:18.484Z,930.92
2017-03-26T03:23:46.662Z,930.94
2017-03-26T03:24:14.932Z,930.91
2017-03-26T03:24:43.239Z,930.91
2017-03-26T03:25:11.723Z,930.89
2017-03-26T03:25:40.027Z,930.91
2017-03-26T03:26:08.296Z,930.91
2017-03-26T03:26:36.830Z,930.91
2017-03-26T03:27:05.094Z,930.9
2017-03-26T03:27:33.315Z,930.97
2017-03-26T03:28:01.577Z,930.94
2017-03-26T03:28:30.034Z,930.94
2017-03-26T03:28:58.270Z,930.98
2017-03-26T03:29:26.631Z,930.95
2017-03-26T03:29:54.905Z,930.93
2017-03-26T03:30:23.286Z,930.94
2017-03-26T03:30:51.590Z,930.97
2017-03-26T03:31:19.795Z,930.97
2017-03-26T03:31:48.054Z,930.95
2017-03-26T03:32:16.552Z,930.96
2017-03-26T03:32:44.842Z,930.95
2017-03-26T03:33:13.283Z,930.97
2017-03-26T03:33:41.431Z,930.98
2017-03-26T03:34:09.874Z,930.98
2017-03-26T03:34:38.316Z,930.96
2017-03-26T03:35:06.769Z,930.97
2017-03-26T03:35:34.945Z,930.97
2017-03-26T03:36:03.084Z,930.94
2017-03-26T03:36:31.748Z,930.99
2017-03-26T03:36:59.986Z,930.94
2017-03-26T03:37:28.252Z,930.95
2017-03-26T03:37:56.651Z,930.9
2017-03-26T03:38:25.030Z,930.92
2017-03-26T03:38:53.364Z,930.93
2017-03-26T03:39:21.602Z,930.89
2017-03-26T03:39:50.011Z,930.9
2017-03-26T03:40:18.378Z,930.92
2017-03-26T03:40:46.608Z,930.92
2017-03-26T03:41:15.104Z,930.89
2017-03-26T03:41:43.470Z,930.87
2017-03-26T03:42:11.915Z,930.83
2017-03-26T03:42:40.286Z,930.83
2017-03-26T03:43:08.492Z,930.87
2017-03-26T03:43:36.826Z,930.85
2017-03-26T03:44:05.241Z,930.8
2017-03-26T03:44:33.580Z,930.83
2017-03-26T03:45:01.721Z,930.81
2017-03-26T03:45:29.894Z,930.8
2017-03-26T03:45:58.039Z,930.78
2017-03-26T03:46:26.441Z,930.77
2017-03-26T03:46:54.959Z,930.79
2017-03-26T03:47:23.205Z,930.76
2017-03-26T03:47:51.408Z,930.75
2017-03-26T03:48:19.631Z,930.74
2017-03-26T03:48:47.906Z,930.75
2017-03-26T03:49:16.280Z,930.76
2017-03-26T03:49:44.767Z,930.71
2017-03-26T03:50:13.102Z,930.7
2017-03-26T03:50:41.424Z,930.71
2017-03-26T03:51:09.739Z,930.73
2017-03-26T03:51:38.153Z,930.73
2017-03-26T03:52:06.424Z,930.7
2017-03-26T03:52:34.830Z,930.69
2017-03-26T03:53:02.949Z,930.69
2017-03-26T03:53:31.178Z,930.68
2017-03-26T03:53:59.164Z,930.62
2017-03-26T03:54:27.418Z,930.63
2017-03-26T03:54:55.758Z,930.58
2017-03-26T03:55:24.133Z,930.57
2017-03-26T03:55:52.439Z,930.54
2017-03-26T03:56:20.707Z,930.54
2017-03-26T03:56:49.209Z,930.53
2017-03-26T03:57:17.665Z,930.53
2017-03-26T03:57:45.944Z,930.53
2017-03-26T03:58:14.236Z,930.52
2017-03-26T03:58:42.614Z,930.52
2017-03-26T03:59:10.809Z,930.51
2017-03-26T03:59:39.049Z,930.52
2017-03-26T04:00:07.341Z,930.51
2017-03-26T04:00:35.631Z,930.5
2017-03-26T04:01:03.872Z,930.53
2017-03-26T04:01:32.496Z,930.51
2017-03-26T04:02:00.960Z,930.51
2017-03-26T04:02:29.084Z,930.49
2017-03-26T04:02:57.365Z,930.48
2017-03-26T04:03:25.662Z,930.46
2017-03-26T04:03:53.868Z,930.43
2017-03-26T04:04:22.294Z,930.41
2017-03-26T04:04:50.665Z,930.43
2017-03-26T04:05:18.778Z,930.42
2017-03-26T04:05:47.036Z,930.47
2017-03-26T04:06:15.100Z,930.45
2017-03-26T04:06:43.571Z,930.44
2017-03-26T04:07:12.031Z,930.44
2017-03-26T04:07:40.298Z,930.44
2017-03-26T04:08:08.523Z,930.42
2017-03-26T04:08:36.781Z,930.4
2017-03-26T04:09:04.917Z,930.38
2017-03-26T04:09:32.993Z,930.42
2017-03-26T04:10:01.126Z,930.39
2017-03-26T04:10:29.412Z,930.44
2017-03-26T04:10:57.736Z,930.41
2017-03-26T04:11:25.957Z,930.42
2017-03-26T04:11:54.060Z,930.44
2017-03-26T04:12:22.635Z,930.41
2017-03-26T04:12:50.907Z,930.44
2017-03-26T04:13:19.076Z,930.44
2017-03-26T04:13:47.395Z,930.45
2017-03-26T04:14:15.909Z,930.43
2017-03-26T04:14:44.326Z,930.4
2017-03-26T04:15:12.713Z,930.41
2017-03-26T04:15:40.990Z,930.39
2017-03-26T04:16:09.212Z,930.38
2017-03-26T04:16:37.451Z,930.37
2017-03-26T04:17:06.147Z,930.34
2017-03-26T04:17:34.608Z,930.32
2017-03-26T04:18:03.086Z,930.32
2017-03-26T04:18:31.439Z,930.29
2017-03-26T04:18:59.612Z,930.35
2017-03-26T04:19:27.815Z,930.3
2017-03-26T04:19:56.072Z,930.29
2017-03-26T04:20:24.465Z,930.28
2017-03-26T04:20:52.764Z,930.31
2017-03-26T04:21:21.049Z,930.28
2017-03-26T04:21:49.297Z,930.27
2017-03-26T04:22:17.668Z,930.25
2017-03-26T04:22:45.807Z,930.24
2017-03-26T04:23:14.134Z,930.26
2017-03-26T04:23:42.486Z,930.22
2017-03-26T04:24:10.688Z,930.19
2017-03-26T04:24:38.851Z,930.22
2017-03-26T04:25:07.748Z,930.21
2017-03-26T04:25:36.165Z,930.18
2017-03-26T04:26:04.483Z,930.2
2017-03-26T04:26:32.654Z,930.17
2017-03-26T04:27:00.908Z,930.21
2017-03-26T04:27:29.433Z,930.2
2017-03-26T04:27:57.740Z,930.23
2017-03-26T04:28:26.059Z,930.22
2017-03-26T04:28:54.356Z,930.2
2017-03-26T04:29:22.637Z,930.17
2017-03-26T04:29:51.011Z,930.18
2017-03-26T04:30:19.190Z,930.17
2017-03-26T04:30:47.425Z,930.16
2017-03-26T04:31:15.604Z,930.14
2017-03-26T04:31:43.891Z,930.14
2017-03-26T04:32:12.330Z,930.15
2017-03-26T04:32:40.593Z,930.14
2017-03-26T04:33:09.134Z,930.14
2017-03-26T04:33:37.572Z,930.11
2017-03-26T04:34:05.885Z,930.15
2017-03-26T04:34:34.325Z,930.12
2017-03-26T04:35:02.708Z,930.13
2017-03-26T04:35:31.062Z,930.13
2017-03-26T04:35:59.469Z,930.16
2017-03-26T04:36:27.622Z,930.17
2017-03-26T04:36:55.859Z,930.15
2017-03-26T04:37:24.286Z,930.16
2017-03-26T04:37:52.797Z,930.17
2017-03-26T04:38:21.167Z,930.17
2017-03-26T04:38:49.622Z,930.14
2017-03-26T04:39:18.150Z,930.16
2017-03-26T04:39:46.403Z,930.18
2017-03-26T04:40:14.668Z,930.18
2017-03-26T04:40:42.890Z,930.18
2017-03-26T04:41:10.992Z,930.17
2017-03-26T04:41:39.286Z,930.14
2017-03-26T04:42:07.465Z,930.15
2017-03-26T04:42:35.631Z,930.11
2017-03-26T04:43:03.685Z,930.13
2017-03-26T04:43:31.947Z,930.11
2017-03-26T04:44:00.247Z,930.11
2017-03-26T04:44:28.436Z,930.15
2017-03-26T04:44:56.756Z,930.13
2017-03-26T04:45:24.926Z,930.17
2017-03-26T04:45:53.093Z,930.16
2017-03-26T04:46:21.355Z,930.14
2017-03-26T04:46:49.697Z,930.15
2017-03-26T04:47:18.040Z,930.15
2017-03-26T04:47:46.313Z,930.14
2017-03-26T04:48:14.559Z,930.11
2017-03-26T04:48:42.939Z,930.11
2017-03-26T04:49:11.185Z,930.06
2017-03-26T04:49:39.437Z,930.06
2017-03-26T04:50:07.633Z,930.09
2017-03-26T04:50:35.963Z,930.05
2017-03-26T04:51:04.164Z,930.04
2017-03-26T04:51:32.297Z,930.05
2017-03-26T04:52:00.515Z,930.06
2017-03-26T04:52:28.790Z,930.08
2017-03-26T04:52:57.166Z,930.07
2017-03-26T04:53:25.488Z,930.05
2017-03-26T04:53:53.656Z,930.05
2017-03-26T04:54:21.843Z,930.09
2017-03-26T04:54:50.102Z,930.09
2017-03-26T04:55:18.307Z,930.08
2017-03-26T04:55:46.588Z,930.06
2017-03-26T04:56:14.821Z,930.07
2017-03-26T04:56:42.982Z,930.06
2017-03-26T04:57:11.035Z,930.04
2017-03-26T04:57:39.244Z,930.05
2017-03-26T04:58:07.312Z,930.04
2017-03-26T04:58:35.530Z,930.02
2017-03-26T04:59:03.712Z,930.05
2017-03-26T04:59:31.993Z,930.03
2017-03-26T05:00:00.283Z,930.03
2017-03-26T05:00:28.317Z,930.03
2017-03-26T05:00:56.369Z,930.01
2017-03-26T05:01:24.756Z,929.98
2017-03-26T05:01:52.966Z,930.04
2017-03-26T05:02:21.144Z,930.02
2017-03-26T05:02:49.319Z,930.03
2017-03-26T05:03:17.556Z,930.06
2017-03-26T05:03:45.729Z,930.01
2017-03-26T05:04:13.961Z,930.04
2017-03-26T05:04:42.040Z,930
2017-03-26T05:05:10.083Z,930.01
2017-03-26T05:05:38.280Z,930
2017-03-26T05:06:06.333Z,930.03
2017-03-26T05:06:34.441Z,930
2017-03-26T05:07:02.601Z,930.02
2017-03-26T05:07:30.888Z,930.05
2017-03-26T05:07:58.978Z,930.03
2017-03-26T05:08:27.241Z,930.05
2017-03-26T05:08:55.537Z,930.09
2017-03-26T05:09:23.763Z,930.04
2017-03-26T05:09:52.008Z,930.07
2017-03-26T05:10:20.046Z,930.11
2017-03-26T05:10:48.085Z,930.1
2017-03-26T05:11:16.408Z,930.11
2017-03-26T05:11:44.742Z,930.13
2017-03-26T05:12:13.031Z,930.11
2017-03-26T05:12:41.188Z,930.08
2017-03-26T05:13:09.414Z,930.05
2017-03-26T05:13:37.622Z,930.04
2017-03-26T05:14:05.681Z,930.04
2017-03-26T05:14:33.896Z,930.05
2017-03-26T05:15:02.122Z,930.04
2017-03-26T05:15:30.392Z,930.06
2017-03-26T05:15:58.577Z,930.06
2017-03-26T05:16:26.883Z,930.07
2017-03-26T05:16:55.172Z,930.08
2017-03-26T05:17:23.305Z,930.04
2017-03-26T05:17:51.474Z,930.06
2017-03-26T05:18:19.511Z,930.08
2017-03-26T05:18:47.705Z,930.08
2017-03-26T05:19:15.898Z,930.09
2017-03-26T05:19:44.048Z,930.13
2017-03-26T05:20:12.314Z,930.11
2017-03-26T05:20:40.556Z,930.08
2017-03-26T05:21:08.620Z,930.1
2017-03-26T05:21:36.842Z,930.11
2017-03-26T05:22:05.035Z,930.12
2017-03-26T05:22:33.227Z,930.12
2017-03-26T05:23:01.535Z,930.14
2017-03-26T05:23:29.802Z,930.13
2017-03-26T05:23:57.893Z,930.13
2017-03-26T05:24:26.134Z,930.14
2017-03-26T05:24:54.207Z,930.11
2017-03-26T05:25:22.305Z,930.14
2017-03-26T05:25:50.335Z,930.17
2017-03-26T05:26:18.500Z,930.17
2017-03-26T05:26:46.707Z,930.14
2017-03-26T05:27:14.800Z,930.17
2017-03-26T05:27:43.139Z,930.14
2017-03-26T05:28:11.329Z,930.13
2017-03-26T05:28:39.514Z,930.12
2017-03-26T05:29:07.407Z,930.1
2017-03-26T05:29:35.550Z,930.07
2017-03-26T05:30:03.718Z,930.11
2017-03-26T05:30:31.981Z,930.11
2017-03-26T05:31:00.019Z,930.08
2017-03-26T05:31:28.135Z,930.11
2017-03-26T05:31:56.373Z,930.1
2017-03-26T05:32:24.482Z,930.08
2017-03-26T05:32:52.891Z,930.08
2017-03-26T05:33:21.159Z,930.08
2017-03-26T05:33:49.412Z,930.05
2017-03-26T05:34:17.671Z,930.03
2017-03-26T05:34:45.856Z,930.06
2017-03-26T05:35:14.024Z,930.05
2017-03-26T05:35:42.312Z,930.09
2017-03-26T05:36:10.562Z,930.06
2017-03-26T05:36:38.847Z,930.08
2017-03-26T05:37:07.051Z,930.11
2017-03-26T05:37:35.152Z,930.09
2017-03-26T05:38:03.328Z,930.09
2017-03-26T05:38:31.482Z,930.11
2017-03-26T05:38:59.687Z,930.13
2017-03-26T05:39:27.785Z,930.1
2017-03-26T05:39:56.059Z,930.12
2017-03-26T05:40:24.247Z,930.11
2017-03-26T05:40:52.382Z,930.15
2017-03-26T05:41:20.432Z,930.15
2017-03-26T05:41:48.558Z,930.13
2017-03-26T05:42:16.633Z,930.14
2017-03-26T05:42:44.905Z,930.14
2017-03-26T05:43:12.985Z,930.12
2017-03-26T05:43:41.206Z,930.12
2017-03-26T05:44:09.487Z,930.11
2017-03-26T05:44:37.815Z,930.11
2017-03-26T05:45:06.012Z,930.1
2017-03-26T05:45:34.142Z,930.13
2017-03-26T05:46:02.459Z,930.15
2017-03-26T05:46:30.565Z,930.12
2017-03-26T05:46:58.576Z,930.11
2017-03-26T05:47:26.733Z,930.1
2017-03-26T05:47:54.932Z,930.1
2017-03-26T05:48:23.259Z,930.09
2017-03-26T05:48:51.443Z,930.11
2017-03-26T05:49:19.699Z,930.1
2017-03-26T05:49:47.891Z,930.11
2017-03-26T05:50:16.181Z,930.1
2017-03-26T05:50:44.419Z,930.07
2017-03-26T05:51:12.485Z,930.06
2017-03-26T05:51:40.777Z,930.04
2017-03-26T05:52:09.032Z,930.03
2017-03-26T05:52:37.165Z,930.01
2017-03-26T05:53:05.500Z,929.97
2017-03-26T05:53:33.715Z,929.99
2017-03-26T05:54:01.932Z,929.99
2017-03-26T05:54:30.202Z,930